Time;durP1;ratioP1;P1;durP2;ratioP2;P2;SDS_P1;SDS_P2;PMS_P1;PMS_P2;Temp;Humidity;BMP_temperature;BMP_pressure;BME280_temperature;BME280_humidity;BME280_pressure;Samples;Min_cycle;Max_cycle;Signal;HPM_P1;HPM_P2
2022/08/05 00:01:23;;;;;;;3.90;3.60;;;24.10;99.90;;;;;;5128139;28;20399;-80
2022/08/05 00:04:08;;;;;;;4.50;4.10;;;24.00;99.90;;;;;;5112039;28;20402;-80
2022/08/05 00:06:52;;;;;;;4.87;4.47;;;24.00;99.90;;;;;;5128021;28;20465;-80
2022/08/05 00:09:37;;;;;;;6.77;4.53;;;24.10;99.90;;;;;;5128052;28;20467;-79
2022/08/05 00:12:21;;;;;;;4.33;3.93;;;24.10;99.90;;;;;;5127386;28;20380;-79
2022/08/05 00:15:08;;;;;;;6.97;5.40;;;24.10;99.90;;;;;;5127440;28;20453;-80
2022/08/05 00:17:53;;;;;;;5.83;4.83;;;24.00;99.90;;;;;;5127849;28;20459;-80
2022/08/05 00:20:37;;;;;;;5.10;4.50;;;24.10;99.90;;;;;;5112098;28;20434;-80
2022/08/05 00:23:22;;;;;;;4.60;4.30;;;24.00;99.90;;;;;;5112426;28;20399;-80
2022/08/05 00:26:06;;;;;;;8.30;4.60;;;24.10;99.90;;;;;;5128018;28;20478;-80
2022/08/05 00:28:50;;;;;;;6.23;4.60;;;23.90;99.90;;;;;;5112520;28;20895;-80
2022/08/05 00:31:35;;;;;;;6.60;4.20;;;23.80;99.90;;;;;;5128148;28;20395;-81
2022/08/05 00:34:20;;;;;;;4.43;4.03;;;23.70;99.90;;;;;;5128274;28;20399;-81
2022/08/05 00:37:05;;;;;;;6.70;4.47;;;23.60;99.90;;;;;;5127711;28;20410;-80
2022/08/05 00:39:49;;;;;;;8.40;4.50;;;23.60;99.90;;;;;;5128450;28;20498;-79
2022/08/05 00:42:36;;;;;;;4.80;4.40;;;23.70;99.90;;;;;;5127482;28;20422;-80
2022/08/05 00:45:20;;;;;;;4.67;4.27;;;23.70;99.90;;;;;;5126770;28;20390;-79
2022/08/05 00:48:07;;;;;;;5.07;4.67;;;23.80;99.90;;;;;;5127629;28;20402;-80
2022/08/05 00:50:52;;;;;;;4.60;4.07;;;23.80;99.90;;;;;;5126703;28;20445;-80
2022/08/05 00:53:36;;;;;;;6.73;4.77;;;23.90;99.90;;;;;;5111335;28;20383;-80
2022/08/05 00:56:21;;;;;;;5.40;4.47;;;23.70;99.90;;;;;;5112009;28;20499;-80
2022/08/05 00:59:06;;;;;;;5.43;3.90;;;23.70;99.90;;;;;;5127611;28;20890;-80
2022/08/05 01:01:51;;;;;;;6.87;4.47;;;23.80;99.90;;;;;;5127247;28;20468;-79
2022/08/05 01:04:36;;;;;;;4.47;4.10;;;23.80;99.90;;;;;;5126222;28;20387;-80
2022/08/05 01:07:20;;;;;;;12.43;7.77;;;23.80;99.90;;;;;;5125333;28;20410;-80
2022/08/05 01:10:08;;;;;;;3.80;3.50;;;23.70;99.90;;;;;;5126142;28;20384;-80
2022/08/05 01:12:57;;;;;;;10.37;9.37;;;23.80;99.90;;;;;;5110556;28;20464;-81
2022/08/05 01:15:46;;;;;;;5.77;4.37;;;23.80;99.90;;;;;;5126587;28;20414;-80
2022/08/05 01:18:36;;;;;;;5.00;4.60;;;23.80;99.90;;;;;;5126161;28;20387;-80
2022/08/05 01:21:51;;;;;;;4.93;4.53;;;23.80;99.90;;;;;;5126784;28;20771;-80
2022/08/05 01:25:01;;;;;;;12.53;9.13;;;23.80;99.90;;;;;;5126769;28;20396;-80
2022/08/05 01:28:14;;;;;;;4.47;4.17;;;23.70;99.90;;;;;;5115129;28;20437;-81
2022/08/05 01:31:07;;;;;;;7.07;4.33;;;23.80;99.90;;;;;;5126635;28;20396;-80
2022/08/05 01:34:00;;;;;;;4.70;3.70;;;23.80;99.90;;;;;;5126073;28;20395;-80
2022/08/05 01:37:06;;;;;;;5.17;4.67;;;23.70;99.90;;;;;;5111399;28;20423;-80
2022/08/05 01:39:53;;;;;;;5.77;4.10;;;23.80;99.90;;;;;;5126110;28;20520;-80
2022/08/05 01:42:40;;;;;;;6.70;4.40;;;23.90;99.90;;;;;;5127091;28;20452;-80
2022/08/05 01:45:26;;;;;;;4.33;4.03;;;23.90;99.90;;;;;;5126225;28;20438;-80
2022/08/05 01:48:12;;;;;;;4.63;4.23;;;23.90;99.90;;;;;;5111221;28;20453;-80
2022/08/05 01:50:57;;;;;;;4.50;4.20;;;23.90;99.90;;;;;;5126806;28;20387;-80
2022/08/05 01:53:45;;;;;;;5.50;4.10;;;23.80;99.90;;;;;;5126575;28;20517;-80
2022/08/05 01:56:33;;;;;;;4.33;3.93;;;23.70;99.90;;;;;;5126197;28;21071;-80
2022/08/05 01:59:21;;;;;;;8.50;4.40;;;23.60;99.90;;;;;;5125795;28;20505;-80
2022/08/05 02:02:07;;;;;;;4.70;4.30;;;23.60;99.90;;;;;;5126652;28;20410;-80
2022/08/05 02:04:55;;;;;;;9.13;5.20;;;23.70;99.90;;;;;;5127334;28;20388;-80
2022/08/05 02:07:43;;;;;;;6.97;4.90;;;23.80;99.90;;;;;;5130210;28;20472;-80
2022/08/05 02:10:35;;;;;;;5.73;5.10;;;24.00;99.90;;;;;;5132188;28;20395;-80
2022/08/05 02:13:27;;;;;;;6.33;5.47;;;24.10;99.90;;;;;;5135425;28;20476;-80
2022/08/05 02:16:21;;;;;;;5.43;4.93;;;24.20;99.90;;;;;;5136582;28;20425;-80
2022/08/05 02:19:16;;;;;;;5.90;5.50;;;24.20;99.90;;;;;;5130361;28;20394;-80
2022/08/05 02:22:18;;;;;;;5.60;5.00;;;24.10;99.90;;;;;;5130330;28;20938;-80
2022/08/05 02:25:08;;;;;;;6.43;5.83;;;24.20;99.90;;;;;;5129361;28;20463;-80
2022/08/05 02:27:56;;;;;;;5.80;5.03;;;24.00;99.90;;;;;;5129700;28;20392;-80
2022/08/05 02:30:49;;;;;;;7.33;6.73;;;23.80;99.90;;;;;;5130163;28;20387;-80
2022/08/05 02:33:38;;;;;;;5.97;5.57;;;23.70;99.90;;;;;;5129824;28;20390;-80
2022/08/05 02:36:24;;;;;;;4.73;4.40;;;23.70;99.90;;;;;;5129615;28;20409;-80
2022/08/05 02:39:10;;;;;;;4.30;4.00;;;23.50;99.90;;;;;;5129150;28;20459;-80
2022/08/05 02:41:57;;;;;;;5.60;4.80;;;23.50;99.90;;;;;;5129592;28;20422;-80
2022/08/05 02:44:43;;;;;;;9.13;5.47;;;23.70;99.90;;;;;;5129291;28;20419;-79
2022/08/05 02:47:31;;;;;;;5.50;5.00;;;23.70;99.90;;;;;;5128967;28;20402;-80
2022/08/05 02:50:16;;;;;;;9.83;5.10;;;23.70;99.90;;;;;;5113774;28;20403;-80
2022/08/05 02:53:03;;;;;;;5.60;5.20;;;23.70;99.90;;;;;;5128642;28;20915;-80
2022/08/05 02:55:49;;;;;;;7.30;4.93;;;23.90;99.90;;;;;;5129814;28;20505;-80
2022/08/05 02:58:36;;;;;;;7.30;6.70;;;23.90;99.90;;;;;;5128739;28;20770;-80
2022/08/05 03:01:23;;;;;;;5.40;5.00;;;23.80;99.90;;;;;;5128775;28;20453;-80
2022/08/05 03:04:11;;;;;;;5.90;5.40;;;23.70;99.90;;;;;;5128204;28;20387;-80
2022/08/05 03:06:57;;;;;;;4.80;4.50;;;23.70;99.90;;;;;;5128910;28;20395;-80
2022/08/05 03:09:44;;;;;;;4.93;4.57;;;23.80;99.90;;;;;;5128397;28;20415;-80
2022/08/05 03:12:30;;;;;;;5.00;4.60;;;23.90;99.90;;;;;;5113301;28;20438;-80
2022/08/05 03:15:15;;;;;;;5.13;4.73;;;24.00;99.90;;;;;;5128864;28;20410;-81
2022/08/05 03:18:00;;;;;;;5.00;4.60;;;24.00;99.90;;;;;;5084510;28;20407;-80
2022/08/05 03:20:45;;;;;;;6.13;4.07;;;24.20;99.90;;;;;;5113676;28;20515;-80
2022/08/05 03:23:30;;;;;;;4.73;4.43;;;24.20;99.90;;;;;;5098889;28;20388;-80
2022/08/05 03:26:14;;;;;;;4.73;4.33;;;24.30;99.90;;;;;;5128671;28;20387;-80
2022/08/05 03:28:59;;;;;;;5.53;4.60;;;24.40;99.90;;;;;;5128889;28;20392;-80
2022/08/05 03:31:43;;;;;;;6.50;5.30;;;24.40;99.90;;;;;;5128069;28;20387;-80
2022/08/05 03:34:28;;;;;;;5.43;4.93;;;24.30;99.90;;;;;;5128247;28;20400;-80
2022/08/05 03:37:13;;;;;;;5.90;5.10;;;24.30;99.90;;;;;;5127625;28;20401;-80
2022/08/05 03:39:58;;;;;;;5.47;4.97;;;24.30;99.90;;;;;;5112472;28;20524;-80
2022/08/05 03:42:43;;;;;;;6.00;5.40;;;24.30;99.90;;;;;;5128153;28;20406;-80
2022/08/05 03:45:27;;;;;;;4.97;4.67;;;24.10;99.90;;;;;;5128315;28;20410;-80
2022/08/05 03:48:11;;;;;;;7.10;6.00;;;24.10;99.90;;;;;;5104903;28;20482;-80
2022/08/05 03:51:10;;;;;;;5.87;5.30;;;24.00;99.90;;;;;;5105769;28;20487;-80
2022/08/05 03:54:11;;;;;;;8.97;5.23;;;24.20;99.90;;;;;;5107023;28;20446;-80
2022/08/05 03:56:57;;;;;;;5.50;5.00;;;24.10;99.90;;;;;;5092624;28;20462;-80
2022/08/05 03:59:48;;;;;;;5.57;5.03;;;24.00;99.90;;;;;;5107216;28;20487;-80
2022/08/05 04:02:35;;;;;;;6.07;5.47;;;24.00;99.90;;;;;;5106992;28;20403;-80
2022/08/05 04:05:20;;;;;;;4.60;4.30;;;24.00;99.90;;;;;;5107575;28;20388;-80
2022/08/05 04:08:09;;;;;;;4.70;4.30;;;23.90;99.90;;;;;;5107074;28;20423;-80
2022/08/05 04:10:54;;;;;;;4.67;4.33;;;24.00;99.90;;;;;;5127273;28;20946;-80
2022/08/05 04:13:40;;;;;;;7.40;4.37;;;24.00;99.90;;;;;;5121076;28;20779;-80
2022/08/05 04:16:26;;;;;;;4.30;3.90;;;24.00;99.90;;;;;;5133172;28;20457;-81
2022/08/05 04:19:12;;;;;;;5.70;5.20;;;24.10;99.90;;;;;;5114178;28;20509;-80
2022/08/05 04:21:56;;;;;;;5.33;3.93;;;24.10;99.90;;;;;;5127917;28;20391;-81
2022/08/05 04:24:43;;;;;;;5.20;4.80;;;24.20;99.90;;;;;;5121644;28;20399;-81
2022/08/05 04:27:28;;;;;;;5.43;4.93;;;24.20;99.90;;;;;;5113039;28;20399;-80
2022/08/05 04:30:12;;;;;;;4.27;4.07;;;24.20;99.90;;;;;;5127619;28;20435;-80
2022/08/05 04:32:57;;;;;;;5.90;4.93;;;24.20;99.90;;;;;;5128683;28;20879;-80
2022/08/05 04:35:42;;;;;;;5.67;5.27;;;24.20;99.90;;;;;;5111727;28;20419;-79
2022/08/05 04:38:26;;;;;;;6.20;4.27;;;24.20;99.90;;;;;;5087569;28;20456;-80
2022/08/05 04:41:12;;;;;;;4.77;4.30;;;24.20;99.90;;;;;;5088409;28;20468;-80
2022/08/05 04:43:57;;;;;;;5.40;4.87;;;24.30;99.90;;;;;;5086919;28;20389;-79
2022/08/05 04:46:41;;;;;;;9.23;5.50;;;24.30;99.90;;;;;;5087557;28;20925;-80
2022/08/05 04:49:26;;;;;;;5.23;4.63;;;24.20;99.90;;;;;;5087252;28;20445;-80
2022/08/05 04:52:11;;;;;;;4.67;4.37;;;24.20;99.90;;;;;;5087951;28;20393;-81
2022/08/05 04:54:57;;;;;;;4.50;4.17;;;24.30;99.90;;;;;;5086996;28;20388;-80
2022/08/05 04:57:44;;;;;;;4.97;4.50;;;24.20;99.90;;;;;;5086543;28;20451;-80
2022/08/05 05:00:29;;;;;;;9.47;4.73;;;24.20;99.90;;;;;;5087175;28;20448;-80
2022/08/05 05:03:20;;;;;;;5.37;4.87;;;24.30;99.90;;;;;;5088822;28;20381;-80
2022/08/05 05:06:04;;;;;;;5.10;4.80;;;24.30;99.90;;;;;;5087276;28;20408;-81
2022/08/05 05:08:49;;;;;;;4.80;4.40;;;24.30;99.90;;;;;;5087084;28;20409;-80
2022/08/05 05:11:34;;;;;;;5.60;4.87;;;24.30;99.90;;;;;;5099329;28;20590;-81
2022/08/05 05:14:19;;;;;;;5.30;4.60;;;24.30;99.90;;;;;;5106628;28;20430;-80
2022/08/05 05:17:03;;;;;;;6.47;4.53;;;24.40;99.90;;;;;;5107467;28;20915;-80
2022/08/05 05:19:47;;;;;;;6.33;5.27;;;24.10;99.90;;;;;;5107665;28;20820;-80
2022/08/05 05:22:32;;;;;;;6.60;4.60;;;24.20;99.90;;;;;;5091965;28;20405;-80
2022/08/05 05:25:16;;;;;;;11.30;5.30;;;24.20;99.90;;;;;;5107555;28;20400;-80
2022/08/05 05:28:03;;;;;;;5.30;4.70;;;24.30;99.90;;;;;;5101581;28;20457;-81
2022/08/05 05:30:49;;;;;;;16.13;6.50;;;24.30;99.90;;;;;;5108264;28;20408;-78
2022/08/05 05:33:33;;;;;;;4.90;4.50;;;24.40;99.90;;;;;;5092123;28;20415;-80
2022/08/05 05:36:19;;;;;;;6.03;5.50;;;24.40;99.90;;;;;;5107532;28;20428;-80
2022/08/05 05:39:03;;;;;;;5.20;4.50;;;24.50;99.90;;;;;;5118904;28;20950;-80
2022/08/05 05:41:47;;;;;;;5.40;4.90;;;24.50;99.90;;;;;;5131659;28;20450;-80
2022/08/05 05:44:31;;;;;;;4.20;3.80;;;24.50;99.90;;;;;;5132405;28;20417;-80
2022/08/05 05:47:16;;;;;;;4.90;4.00;;;24.60;99.90;;;;;;5132603;28;20430;-80
2022/08/05 05:50:01;;;;;;;4.20;3.63;;;24.70;99.90;;;;;;5130426;28;20461;-77
2022/08/05 05:52:47;;;;;;;4.23;3.93;;;24.80;99.90;;;;;;5130398;27;20987;-80
2022/08/05 05:55:31;;;;;;;3.70;3.40;;;24.90;99.90;;;;;;5129120;28;20422;-80
2022/08/05 05:58:16;;;;;;;5.33;4.83;;;24.90;99.90;;;;;;5111629;27;20463;-80
2022/08/05 06:01:00;;;;;;;3.93;3.53;;;25.00;99.90;;;;;;5123279;28;20449;-80
2022/08/05 06:03:44;;;;;;;5.30;4.30;;;25.00;99.90;;;;;;5126658;28;20426;-80
2022/08/05 06:06:29;;;;;;;6.40;4.37;;;25.00;99.90;;;;;;5109767;28;20431;-79
2022/08/05 06:09:13;;;;;;;4.17;3.73;;;24.90;99.90;;;;;;5130458;27;20506;-80
2022/08/05 06:11:57;;;;;;;8.57;4.03;;;24.90;99.90;;;;;;5108619;28;20441;-80
2022/08/05 06:14:43;;;;;;;4.60;4.20;;;24.90;99.90;;;;;;5130700;27;20415;-80
2022/08/05 06:17:28;;;;;;;4.23;3.93;;;24.90;99.90;;;;;;5136745;27;20402;-80
2022/08/05 06:20:14;;;;;;;5.00;3.90;;;24.90;99.90;;;;;;5129168;28;20469;-80
2022/08/05 06:22:58;;;;;;;4.67;4.20;;;24.90;99.90;;;;;;5131863;27;20430;-80
2022/08/05 06:25:44;;;;;;;5.17;3.83;;;24.90;99.90;;;;;;5126816;28;20946;-80
2022/08/05 06:28:29;;;;;;;7.67;3.73;;;24.80;99.90;;;;;;5126987;27;20434;-80
2022/08/05 06:31:13;;;;;;;5.90;3.47;;;24.90;99.90;;;;;;5127355;27;20445;-80
2022/08/05 06:33:57;;;;;;;5.63;3.37;;;24.90;99.90;;;;;;5112072;27;20436;-80
2022/08/05 06:36:41;;;;;;;4.20;3.90;;;25.00;99.90;;;;;;5130836;27;20429;-80
2022/08/05 06:39:27;;;;;;;5.37;4.87;;;25.10;99.90;;;;;;5131078;27;20882;-81
2022/08/05 06:42:14;;;;;;;6.90;3.97;;;25.10;99.90;;;;;;5129416;27;20946;-81
2022/08/05 06:45:00;;;;;;;5.90;3.80;;;25.30;99.90;;;;;;5124439;27;20426;-81
2022/08/05 06:47:44;;;;;;;4.50;4.10;;;25.30;99.90;;;;;;5110160;27;20456;-82
2022/08/05 06:50:29;;;;;;;4.23;3.57;;;25.40;99.90;;;;;;5119816;27;20430;-81
2022/08/05 06:53:13;;;;;;;6.60;4.53;;;25.50;99.90;;;;;;5113067;28;20495;-82
2022/08/05 06:55:59;;;;;;;5.20;3.63;;;25.60;99.90;;;;;;5112180;28;20446;-81
2022/08/05 06:58:43;;;;;;;6.63;3.80;;;25.70;99.90;;;;;;5133009;27;21041;-82
2022/08/05 07:01:27;;;;;;;4.60;4.20;;;25.80;99.90;;;;;;5122358;27;20591;-81
2022/08/05 07:04:12;;;;;;;3.93;3.57;;;25.80;99.90;;;;;;5126048;27;20418;-80
2022/08/05 07:06:56;;;;;;;6.30;3.77;;;25.90;99.90;;;;;;5125196;27;20495;-81
2022/08/05 07:09:41;;;;;;;5.27;3.77;;;26.00;99.90;;;;;;5135907;27;20429;-82
2022/08/05 07:18:28;;;;;;;3.57;3.27;;;26.30;99.90;;;;;;5113621;27;20489;-82
2022/08/05 07:21:12;;;;;;;4.17;3.77;;;26.40;99.90;;;;;;5118015;27;20499;-83
2022/08/05 07:23:56;;;;;;;4.00;2.83;;;26.50;99.90;;;;;;5125914;27;20773;-83
2022/08/05 07:26:41;;;;;;;4.53;3.00;;;26.60;99.90;;;;;;5120957;27;20425;-83
2022/08/05 07:29:25;;;;;;;3.90;3.00;;;26.70;99.90;;;;;;5124591;27;20429;-83
2022/08/05 07:32:11;;;;;;;3.67;3.37;;;26.80;99.90;;;;;;5118365;27;20863;-82
2022/08/05 07:34:55;;;;;;;4.50;3.70;;;26.90;99.90;;;;;;5099493;28;20441;-84
2022/08/05 07:37:40;;;;;;;3.00;2.80;;;27.00;99.90;;;;;;5118789;27;20438;-80
2022/08/05 07:40:25;;;;;;;3.97;3.63;;;27.00;99.90;;;;;;5116992;27;20516;-81
2022/08/05 07:43:10;;;;;;;4.27;3.87;;;27.00;99.90;;;;;;5114750;27;20442;-83
2022/08/05 07:45:54;;;;;;;4.37;3.97;;;27.00;99.90;;;;;;5122009;27;20457;-83
2022/08/05 07:48:39;;;;;;;3.20;2.90;;;27.10;99.90;;;;;;5113392;27;20438;-83
2022/08/05 07:51:24;;;;;;;8.23;3.30;;;27.10;99.90;;;;;;5115652;27;20434;-82
2022/08/05 07:54:09;;;;;;;2.97;2.77;;;27.20;99.90;;;;;;5130981;27;20411;-83
2022/08/05 07:56:54;;;;;;;3.30;3.10;;;27.30;99.90;;;;;;5132338;27;20470;-79
2022/08/05 07:59:38;;;;;;;4.03;3.73;;;27.20;99.90;;;;;;5097073;28;20451;-83
2022/08/05 08:02:25;;;;;;;3.97;3.20;;;27.30;99.90;;;;;;5114573;28;20480;-83
2022/08/05 08:05:09;;;;;;;3.17;2.97;;;27.40;99.90;;;;;;5131240;27;20509;-82
2022/08/05 08:07:54;;;;;;;3.27;3.07;;;27.50;99.90;;;;;;5129177;27;20426;-82
2022/08/05 08:10:39;;;;;;;3.90;3.33;;;27.60;99.90;;;;;;5116343;27;20484;-81
2022/08/05 08:13:24;;;;;;;3.33;3.03;;;27.60;99.90;;;;;;5124069;27;20446;-83
2022/08/05 08:16:08;;;;;;;3.20;3.00;;;27.70;99.90;;;;;;5116606;28;20433;-82
2022/08/05 08:18:53;;;;;;;5.50;3.07;;;27.90;99.90;;;;;;5117515;27;20442;-84
2022/08/05 08:21:37;;;;;;;5.30;3.13;;;27.90;99.90;;;;;;5101298;28;20430;-83
2022/08/05 08:24:21;;;;;;;10.70;3.00;;;27.80;99.90;;;;;;5111360;27;20804;-84
2022/08/05 08:27:06;;;;;;;3.90;3.50;;;28.00;99.90;;;;;;5117084;28;20949;-82
2022/08/05 08:29:51;;;;;;;4.60;3.50;;;28.10;99.90;;;;;;5121229;27;20445;-83
2022/08/05 08:32:35;;;;;;;4.33;3.93;;;28.10;99.90;;;;;;5122291;27;20437;-83
2022/08/05 08:35:20;;;;;;;3.60;3.30;;;28.20;99.90;;;;;;5117199;27;20425;-83
2022/08/05 08:38:04;;;;;;;2.83;2.63;;;28.20;99.90;;;;;;5101036;27;20472;-84
2022/08/05 08:40:49;;;;;;;2.93;2.63;;;28.40;99.90;;;;;;5115749;27;20477;-83
2022/08/05 08:43:36;;;;;;;3.23;2.60;;;28.50;99.90;;;;;;5120413;27;20524;-83
2022/08/05 08:46:22;;;;;;;3.60;3.00;;;28.60;99.90;;;;;;5098002;28;20537;-83
2022/08/05 08:49:07;;;;;;;3.77;2.17;;;28.70;99.90;;;;;;5114603;27;20422;-83
2022/08/05 08:52:00;;;;;;;4.73;3.70;;;28.80;99.90;;;;;;5099884;27;20540;-82
2022/08/05 08:54:46;;;;;;;2.80;2.60;;;28.90;99.90;;;;;;5109014;28;20922;-82
2022/08/05 08:57:33;;;;;;;2.47;2.27;;;29.00;99.90;;;;;;5098432;28;20458;-82
2022/08/05 09:00:17;;;;;;;2.57;2.40;;;28.90;99.90;;;;;;5110882;28;20466;-81
2022/08/05 09:03:05;;;;;;;2.33;2.13;;;28.90;99.90;;;;;;5114511;28;20572;-83
2022/08/05 09:05:49;;;;;;;2.87;2.67;;;29.00;99.90;;;;;;5119965;28;20439;-83
2022/08/05 09:08:34;;;;;;;2.67;2.47;;;29.00;99.90;;;;;;5105247;28;20434;-83
2022/08/05 09:11:19;;;;;;;3.20;2.90;;;29.20;99.90;;;;;;5119599;28;20459;-85
2022/08/05 09:14:03;;;;;;;3.00;2.37;;;29.30;99.90;;;;;;5110471;28;20496;-83
2022/08/05 09:16:47;;;;;;;3.40;2.30;;;29.10;99.90;;;;;;5103349;28;20545;-82
2022/08/05 09:19:32;;;;;;;3.27;3.07;;;29.30;99.90;;;;;;5107635;27;20538;-83
2022/08/05 09:22:16;;;;;;;2.50;2.30;;;29.40;99.90;;;;;;5110581;28;20913;-83
2022/08/05 09:25:02;;;;;;;4.00;2.43;;;29.50;98.50;;;;;;5117493;27;20921;-80
2022/08/05 09:27:47;;;;;;;6.80;2.70;;;29.50;99.90;;;;;;5116122;27;20426;-82
2022/08/05 09:30:33;;;;;;;3.47;2.60;;;29.90;99.90;;;;;;5118838;27;20500;-82
2022/08/05 09:33:18;;;;;;;2.20;2.00;;;30.00;98.00;;;;;;5117500;27;20468;-83
2022/08/05 09:36:04;;;;;;;3.30;3.10;;;29.90;97.90;;;;;;5100028;28;20452;-83
2022/08/05 09:38:58;;;;;;;3.47;3.17;;;30.00;96.90;;;;;;5118917;27;20485;-83
2022/08/05 09:42:02;;;;;;;2.30;2.10;;;30.40;95.40;;;;;;5115470;27;20426;-83
2022/08/05 09:44:49;;;;;;;2.20;2.00;;;30.30;94.80;;;;;;5117717;27;20436;-82
2022/08/05 09:47:34;;;;;;;3.00;2.70;;;30.20;95.10;;;;;;5116093;27;20498;-83
2022/08/05 09:50:19;;;;;;;2.87;2.67;;;30.10;93.30;;;;;;5120383;28;20489;-83
2022/08/05 09:53:03;;;;;;;2.63;2.50;;;30.00;94.00;;;;;;5090915;28;20469;-83
2022/08/05 09:55:52;;;;;;;3.57;2.17;;;30.00;93.20;;;;;;5115188;27;20523;-83
2022/08/05 09:58:36;;;;;;;2.27;2.07;;;30.10;94.30;;;;;;5113672;28;20434;-82
2022/08/05 10:01:21;;;;;;;2.50;1.90;;;30.50;93.50;;;;;;5098076;27;20495;-83
2022/08/05 10:04:11;;;;;;;3.80;2.30;;;30.70;90.80;;;;;;5091917;27;20471;-83
2022/08/05 10:06:56;;;;;;;2.20;2.07;;;30.60;90.70;;;;;;5094968;27;20488;-83
2022/08/05 10:09:54;;;;;;;3.60;2.00;;;30.60;90.20;;;;;;5121392;27;20485;-83
2022/08/05 10:12:46;;;;;;;2.87;2.47;;;30.50;91.50;;;;;;5112842;28;20790;-81
2022/08/05 10:15:32;;;;;;;2.30;2.10;;;30.40;90.70;;;;;;5124041;27;20933;-82
2022/08/05 10:18:31;;;;;;;4.70;2.57;;;30.40;91.00;;;;;;5103735;28;20490;-80
2022/08/05 10:21:16;;;;;;;2.70;2.50;;;30.20;90.70;;;;;;5088795;28;20476;-80
2022/08/05 10:24:02;;;;;;;4.93;2.43;;;30.40;90.70;;;;;;5124921;27;20476;-80
2022/08/05 10:26:50;;;;;;;2.37;2.17;;;30.60;91.80;;;;;;5080601;28;20459;-81
2022/08/05 10:29:35;;;;;;;3.00;2.53;;;30.80;91.20;;;;;;5074221;28;20458;-79
2022/08/05 10:32:20;;;;;;;2.40;2.20;;;31.10;90.50;;;;;;5094394;28;20415;-82
2022/08/05 10:35:05;;;;;;;2.70;2.50;;;31.20;89.50;;;;;;5074759;28;20460;-81
2022/08/05 10:37:50;;;;;;;2.67;2.47;;;31.50;87.80;;;;;;5064978;28;20492;-82
2022/08/05 10:40:44;;;;;;;4.40;2.17;;;31.60;88.10;;;;;;5058177;28;20471;-81
2022/08/05 10:43:46;;;;;;;2.70;2.23;;;31.60;83.20;;;;;;5062652;28;20472;-79
2022/08/05 10:46:50;;;;;;;4.37;2.40;;;31.60;82.90;;;;;;5073338;28;20494;-80
2022/08/05 10:49:34;;;;;;;2.60;2.40;;;31.30;84.00;;;;;;5074991;28;20487;-81
2022/08/05 10:52:40;;;;;;;2.43;2.13;;;31.20;85.50;;;;;;5075852;28;20540;-81
2022/08/05 10:55:26;;;;;;;2.43;2.30;;;31.80;84.30;;;;;;5061280;28;20471;-82
2022/08/05 10:58:12;;;;;;;2.63;2.40;;;32.10;82.90;;;;;;5104893;28;20450;-80
2022/08/05 11:00:56;;;;;;;2.93;2.73;;;32.00;80.10;;;;;;5096096;28;20450;-81
2022/08/05 11:03:59;;;;;;;2.90;2.70;;;32.00;82.90;;;;;;5086582;28;20569;-81
2022/08/05 11:07:05;;;;;;;3.70;2.50;;;32.30;82.10;;;;;;5088867;28;20842;-81
2022/08/05 11:09:52;;;;;;;3.03;2.73;;;32.60;82.60;;;;;;5090606;28;20265;-82
2022/08/05 11:12:43;;;;;;;6.90;2.53;;;32.50;76.70;;;;;;5106389;28;20176;-81
2022/08/05 11:15:40;;;;;;;2.87;2.57;;;31.70;78.10;;;;;;5110216;28;20193;-82
2022/08/05 11:18:28;;;;;;;7.40;4.30;;;31.10;78.90;;;;;;5089707;28;20203;-81
2022/08/05 11:21:30;;;;;;;3.50;2.70;;;30.70;83.80;;;;;;5105448;28;20234;-80
2022/08/05 11:24:14;;;;;;;5.63;2.80;;;30.80;85.60;;;;;;5100491;28;20489;-81
2022/08/05 11:27:29;;;;;;;5.83;2.50;;;31.40;87.90;;;;;;5089420;28;20427;-80
2022/08/05 11:30:13;;;;;;;2.90;2.53;;;31.90;85.70;;;;;;5092854;28;20439;-80
2022/08/05 11:33:29;;;;;;;2.67;2.47;;;32.40;83.80;;;;;;5104999;28;20263;-82
2022/08/05 11:36:17;;;;;;;2.53;2.33;;;33.10;79.80;;;;;;5085457;28;20224;-80
2022/08/05 11:39:01;;;;;;;3.10;2.80;;;33.50;77.40;;;;;;5089667;28;20232;-80
2022/08/05 11:41:50;;;;;;;3.90;2.78;;;32.60;78.30;;;;;;5106073;28;20606;-82
2022/08/05 11:44:39;;;;;;;2.67;2.35;;;31.80;78.50;;;;;;5107476;28;20201;-82
2022/08/05 11:47:25;;;;;;;2.60;2.45;;;32.70;77.60;;;;;;5082237;28;20189;-80
2022/08/05 11:50:10;;;;;;;4.55;2.78;;;32.80;75.20;;;;;;5102860;28;20208;-82
2022/08/05 11:53:02;;;;;;;2.92;2.72;;;32.40;79.00;;;;;;5102404;28;20193;-81
2022/08/05 11:55:56;;;;;;;2.58;2.38;;;33.50;76.80;;;;;;5094064;28;20251;-82
2022/08/05 11:58:43;;;;;;;3.53;3.03;;;34.60;70.40;;;;;;5122132;28;20187;-83
2022/08/05 12:01:27;;;;;;;3.28;2.72;;;35.10;68.70;;;;;;5108238;28;20261;-83
2022/08/05 12:04:12;;;;;;;3.08;2.88;;;35.50;69.20;;;;;;5103634;28;20525;-81
2022/08/05 12:06:58;;;;;;;3.25;2.95;;;35.40;65.20;;;;;;5103416;28;20376;-82
2022/08/05 12:09:48;;;;;;;3.00;2.70;;;33.80;67.20;;;;;;5099262;28;20215;-82
2022/08/05 12:12:33;;;;;;;3.05;2.83;;;35.40;67.70;;;;;;5084039;28;20251;-81
2022/08/05 12:15:21;;;;;;;3.15;2.85;;;36.20;61.80;;;;;;5079687;28;20188;-81
2022/08/05 12:18:05;;;;;;;4.93;2.30;;;36.50;61.20;;;;;;5093286;28;20181;-81
2022/08/05 12:20:49;;;;;;;2.47;2.38;;;36.60;60.10;;;;;;5097395;28;20193;-82
2022/08/05 12:23:35;;;;;;;3.00;2.72;;;36.80;60.80;;;;;;5079278;28;20188;-81
2022/08/05 12:26:22;;;;;;;3.38;2.38;;;36.50;59.80;;;;;;5080037;28;20189;-80
2022/08/05 12:29:10;;;;;;;2.78;2.58;;;36.50;58.00;;;;;;5069023;28;20212;-82
2022/08/05 12:31:59;;;;;;;3.00;2.80;;;36.70;57.70;;;;;;5082701;28;20196;-82
2022/08/05 12:34:44;;;;;;;2.78;2.58;;;36.80;57.10;;;;;;5067535;28;20213;-81
2022/08/05 12:37:31;;;;;;;3.53;3.13;;;36.70;57.10;;;;;;5062397;28;20662;-81
2022/08/05 12:40:23;;;;;;;2.20;2.10;;;36.50;56.60;;;;;;5077023;28;20229;-82
2022/08/05 12:43:10;;;;;;;3.83;2.78;;;36.90;56.20;;;;;;5043971;28;20203;-80
2022/08/05 12:45:55;;;;;;;3.08;2.88;;;36.60;56.30;;;;;;5039309;28;20281;-80
2022/08/05 12:48:41;;;;;;;3.55;3.15;;;35.60;58.20;;;;;;5017861;28;20192;-79
2022/08/05 12:51:27;;;;;;;2.67;2.53;;;35.80;58.30;;;;;;5037742;28;20186;-79
2022/08/05 12:54:21;;;;;;;3.10;2.90;;;36.60;57.20;;;;;;4986911;28;20196;-81
2022/08/05 12:57:07;;;;;;;2.70;2.50;;;36.90;56.80;;;;;;5020657;28;20204;-81
2022/08/05 12:59:54;;;;;;;3.25;2.80;;;37.60;56.50;;;;;;5036100;28;20206;-81
2022/08/05 13:03:00;;;;;;;4.55;3.13;;;37.90;57.90;;;;;;5034034;28;20247;-81
2022/08/05 13:05:47;;;;;;;3.65;2.97;;;38.10;57.60;;;;;;5000019;28;20227;-83
2022/08/05 13:08:32;;;;;;;5.70;4.22;;;38.30;56.90;;;;;;5005599;28;20240;-81
2022/08/05 13:11:21;;;;;;;4.40;3.20;;;38.30;57.20;;;;;;4992282;28;20724;-81
2022/08/05 13:14:24;;;;;;;4.00;2.88;;;37.70;57.90;;;;;;4995928;28;20229;-80
2022/08/05 13:17:20;;;;;;;3.17;2.97;;;37.40;58.70;;;;;;5027364;28;20170;-81
2022/08/05 13:20:14;;;;;;;2.90;2.70;;;38.20;57.00;;;;;;5002867;28;20215;-80
2022/08/05 13:22:59;;;;;;;3.85;3.55;;;38.40;56.10;;;;;;5015877;28;20223;-80
2022/08/05 13:25:45;;;;;;;3.10;2.90;;;37.50;55.70;;;;;;5005540;28;20199;-81
2022/08/05 13:28:40;;;;;;;5.63;4.07;;;38.00;58.00;;;;;;5019841;28;20249;-81
2022/08/05 13:31:32;;;;;;;9.10;3.42;;;38.20;56.20;;;;;;5037044;28;20214;-80
2022/08/05 13:34:17;;;;;;;3.03;2.83;;;37.90;56.80;;;;;;5005725;28;20687;-81
2022/08/05 13:37:01;;;;;;;2.83;2.60;;;37.90;56.30;;;;;;5017625;28;20231;-82
2022/08/05 13:39:48;;;;;;;2.97;2.78;;;37.10;58.00;;;;;;5000017;28;20628;-82
2022/08/05 13:42:55;;;;;;;3.53;3.05;;;37.30;58.50;;;;;;4951683;29;20535;-81
2022/08/05 13:45:59;;;;;;;4.55;2.78;;;37.40;57.00;;;;;;4929821;29;20194;-81
2022/08/05 13:48:47;;;;;;;3.33;3.03;;;37.10;57.30;;;;;;4908264;29;20409;-80
2022/08/05 13:51:32;;;;;;;4.90;2.83;;;36.50;57.60;;;;;;4914748;29;20225;-79
2022/08/05 13:54:19;;;;;;;2.70;2.50;;;36.30;58.70;;;;;;4904643;29;20228;-79
2022/08/05 13:57:04;;;;;;;3.20;3.00;;;36.40;57.30;;;;;;4886045;29;20224;-80
2022/08/05 13:59:50;;;;;;;2.85;2.60;;;36.30;58.90;;;;;;4885178;29;20220;-80
2022/08/05 14:02:36;;;;;;;3.00;2.80;;;36.70;56.50;;;;;;4875809;29;20197;-80
2022/08/05 14:05:21;;;;;;;4.40;2.55;;;36.70;57.20;;;;;;4852357;29;20284;-80
2022/08/05 14:08:08;;;;;;;2.58;2.38;;;36.80;56.40;;;;;;4853213;29;20218;-80
2022/08/05 14:10:53;;;;;;;3.17;2.13;;;36.80;55.20;;;;;;4837525;29;20198;-80
2022/08/05 14:13:40;;;;;;;6.75;2.35;;;36.70;55.30;;;;;;4848192;29;20625;-81
2022/08/05 14:16:44;;;;;;;2.20;2.00;;;36.60;55.20;;;;;;4821645;29;20536;-80
2022/08/05 14:19:49;;;;;;;2.28;2.13;;;36.70;54.50;;;;;;4812144;29;20194;-81
2022/08/05 14:22:35;;;;;;;2.40;2.20;;;36.70;55.30;;;;;;4781749;30;20220;-81
2022/08/05 14:26:00;;;;;;;2.83;2.10;;;36.50;55.10;;;;;;4776657;30;21007;-80
2022/08/05 14:29:11;;;;;;;3.10;2.45;;;36.50;55.10;;;;;;4711650;30;20831;-80
2022/08/05 14:31:55;;;;;;;5.60;3.33;;;36.40;54.90;;;;;;4726482;30;20198;-81
2022/08/05 14:34:41;;;;;;;4.20;2.40;;;36.20;54.70;;;;;;4775593;30;20200;-80
2022/08/05 14:37:26;;;;;;;2.55;2.35;;;36.20;55.20;;;;;;4780612;30;20203;-81